Flight Track Log - Related Links

Times and Time Zones

All times are in EDT time to prevent confusion due to time zone crossing. See the AAY841 flight status page for this flight to view local times or setup timezone preferences in your user account.


Time Position Orientation Groundspeed Altitude Reporting Facility
EDT Latitude Longitude Course Direction KTS MPH feet Rate Location/Type
Sun 10:32:53 AM 36.3964 -82.4653 182° South 230 265 4,700  Level Atlanta Center
Sun 10:33:53 AM 36.3233 -82.4514 171° South 267 307 7,000 2,600 Climbing Atlanta Center
Sun 10:34:53 AM 36.2439 -82.4350 171° South 282 325 9,900 1,500 Climbing Atlanta Center
Sun 10:35:53 AM 36.1456 -82.4086 168° South 330 380 10,000 750 Climbing Atlanta Center
Sun 10:36:53 AM 36.0408 -82.3850 170° South 376 433 11,400 2,150 Climbing Atlanta Center
Sun 10:37:00 AM 35.9059 -82.4278 182° South  Level Estimated
Sun 10:37:53 AM 35.9342 -82.3642 171° South 394 453 14,300  Level Atlanta Center
Sun 10:38:53 AM 35.8256 -82.3433 171° South 399 459 17,500 2,600 Climbing Atlanta Center
Sun 10:39:53 AM 35.7064 -82.3253 173° South 393 452 19,500 1,500 Climbing Atlanta Center
Sun 10:40:53 AM 35.5914 -82.3150 176° South 398 458 20,500 1,350 Climbing Atlanta Center
Sun 10:41:53 AM 35.4639 -82.3047 176° South 430 495 22,200 1,650 Climbing Atlanta Center
Sun 10:42:53 AM 35.3386 -82.2947 176° South 445 512 23,800 1,600 Climbing Atlanta Center
Sun 10:43:53 AM 35.2114 -82.2847 176° South 456 525 25,400 1,650 Climbing Atlanta Center
Sun 10:44:53 AM 35.0839 -82.2722 175° South 462 532 27,100 1,800 Climbing Atlanta Center
Sun 10:45:53 AM 34.9564 -82.2622 176° South 462 532 29,000 1,450 Climbing Atlanta Center
Sun 10:46:53 AM 34.8289 -82.2497 175° South 462 532 30,000 550 Climbing Atlanta Center
Sun 10:47:53 AM 34.7036 -82.2425 177° South 462 532 30,100 700 Climbing Atlanta Center
Sun 10:48:53 AM 34.5822 -82.2297 175° South 457 526 31,400 950 Climbing Atlanta Center
Sun 10:49:53 AM 34.4592 -82.2225 177° South 457 526 32,000 300 Climbing Atlanta Center
Sun 10:50:53 AM 34.3336 -82.2125 176° South 457 526 32,000  Level Atlanta Center
Sun 10:51:53 AM 34.2106 -82.2025 176° South 452 520 32,000  Level Atlanta Center
Sun 10:52:53 AM 34.0831 -82.1928 176° South 452 520 32,000  Level Atlanta Center
Sun 10:53:53 AM 33.9597 -82.1806 175° South 452 520 32,000  Level Atlanta Center
Sun 10:54:53 AM 33.8300 -82.1683 176° South 457 526 32,000  Level Atlanta Center
Sun 10:55:53 AM 33.7047 -82.1611 177° South 462 532 32,000  Level Atlanta Center
Sun 10:56:53 AM 33.5778 -82.1811 187° South 457 526 32,000  Level Atlanta Center
Sun 10:57:53 AM 33.4528 -82.2014 188° South 457 526 32,000  Level Atlanta Center
Sun 10:58:53 AM 33.3300 -82.2239 189° South 462 532 32,000  Level Atlanta Center
Sun 11:00:46 AM 33.0981 -82.2628 188° South 453 521 32,000  Level Jacksonville Center
Sun 11:01:46 AM 32.9814 -82.2808 187° South 453 521 32,000  Level Jacksonville Center
Sun 11:02:46 AM 32.8603 -82.2992 187° South 453 521 32,000  Level Jacksonville Center
Sun 11:03:46 AM 32.7372 -82.3197 188° South 453 521 32,000  Level Jacksonville Center
Sun 11:04:46 AM 32.6122 -82.3400 188° South 453 521 32,000  Level Jacksonville Center
Sun 11:05:46 AM 32.4889 -82.3606 188° South 453 521 32,000  Level Jacksonville Center
Sun 11:06:46 AM 32.3658 -82.3811 188° South 453 521 32,000  Level Jacksonville Center
Sun 11:07:46 AM 32.2408 -82.3989 187° South 453 521 32,000  Level Jacksonville Center
Sun 11:08:46 AM 32.1175 -82.4167 187° South 453 521 32,000  Level Jacksonville Center
Sun 11:09:46 AM 31.9903 -82.4369 188° South 453 521 32,000  Level Jacksonville Center
Sun 11:10:46 AM 31.8631 -82.4353 179° South 453 521 32,000  Level Jacksonville Center
Sun 11:11:46 AM 31.7397 -82.4258 176° South 447 514 32,000  Level Jacksonville Center
Sun 11:12:46 AM 31.6125 -82.4242 179° South 452 520 32,000  Level Jacksonville Center
Sun 11:13:46 AM 31.4850 -82.4200 178° South 457 526 32,000  Level Jacksonville Center
Sun 11:14:46 AM 31.3450 -82.4206 180° South 457 526 32,000  Level Jacksonville Center
Sun 11:15:46 AM 31.2197 -82.4164 178° South 457 526 32,000  Level Jacksonville Center
Sun 11:16:46 AM 31.0944 -82.4122 178° South 457 526 32,000  Level Jacksonville Center
Sun 11:17:46 AM 30.9672 -82.4056 177° South 457 526 32,000  Level Jacksonville Center
Sun 11:18:46 AM 30.8439 -82.4014 178° South 457 526 32,000  Level Jacksonville Center
Sun 11:19:46 AM 30.7269 -82.3994 179° South 457 526 32,000  Level Jacksonville Center
Sun 11:20:46 AM 30.6017 -82.3953 178° South 457 526 32,000  Level Jacksonville Center
Sun 11:21:46 AM 30.4764 -82.3889 177° South 457 526 32,000  Level Jacksonville Center
Sun 11:22:46 AM 30.3533 -82.3869 179° South 457 526 32,000  Level Jacksonville Center
Sun 11:23:46 AM 30.2258 -82.3828 178° South 452 520 32,000  Level Jacksonville Center
Sun 11:24:46 AM 30.1025 -82.3764 177° South 452 520 32,000  Level Jacksonville Center
Sun 11:25:46 AM 29.9647 -82.3675 177° South 452 520 32,000 -650 Level Jacksonville Center
Sun 11:26:46 AM 29.8375 -82.3658 179° South 452 520 30,700 -1,600 Descending Jacksonville Center
Sun 11:27:46 AM 29.7100 -82.3617 178° South 457 526 28,800 -1,950 Descending Jacksonville Center
Sun 11:28:46 AM 29.5806 -82.3553 178° South 457 526 26,800 -1,550 Descending Jacksonville Center
Sun 11:29:46 AM 29.4594 -82.3417 174° South 457 526 25,700 -1,150 Descending Jacksonville Center
Sun 11:30:46 AM 29.3383 -82.3281 174° South 444 511 24,500 -1,750 Descending Jacksonville Center
Sun 11:31:46 AM 29.2214 -82.3144 174° South 438 504 22,200 -2,300 Descending Jacksonville Center
Sun 11:32:46 AM 29.1064 -82.3031 175° South 433 498 19,900 -2,200 Descending Jacksonville Center
Sun 11:33:46 AM 28.9936 -82.2897 174° South 422 486 17,800 -2,050 Descending Jacksonville Center
Sun 11:34:46 AM 28.8956 -82.2783 174° South 416 479 15,800 -1,778 Descending Jacksonville Center
Sun 11:36:28 AM 28.7000 -82.2667 177° South 379 436 13,000 -1,185 Descending Tampa TRACON
Sun 11:37:28 AM 28.6000 -82.2500 172° South 359 413 12,600 -600 Descending Tampa TRACON
Sun 11:38:28 AM 28.5000 -82.2667 188° South 363 418 11,800 -800 Descending Tampa TRACON
Sun 11:39:28 AM 28.4500 -82.3500 236° Southwest 340 391 11,000 -800 Descending Tampa TRACON
Sun 11:40:28 AM 28.4333 -82.4500 259° West 325 374 10,200 -900 Descending Tampa TRACON
Sun 11:41:28 AM 28.4167 -82.5333 257° West 293 337 9,200 -1,200 Descending Tampa TRACON
Sun 11:42:28 AM 28.4000 -82.6167 257° West 280 322 7,800 -1,500 Descending Tampa TRACON
Sun 11:43:28 AM 28.3500 -82.6833 230° Southwest 292 336 6,200 -900 Descending Tampa TRACON
Sun 11:44:28 AM 28.2833 -82.7333 213° Southwest 295 339 6,000 -400 Descending Tampa TRACON
Sun 11:45:28 AM 28.2000 -82.7333 180° South 294 338 5,400 -700 Descending Tampa TRACON
Sun 11:46:28 AM 28.1167 -82.7500 190° South 287 330 4,600 -850 Descending Tampa TRACON
Sun 11:47:28 AM 28.0333 -82.7500 180° South 281 323 3,700 -900 Descending Tampa TRACON
Sun 11:48:28 AM 27.9667 -82.7500 180° South 270 311 2,800 -800 Descending Tampa TRACON
Sun 11:49:28 AM 27.9000 -82.7500 180° South 219 252 2,100 -645 Descending Tampa TRACON
Sun 11:50:29 AM 27.8500 -82.7500 180° South 191 220 1,500 -397 Descending Tampa TRACON
Sun 11:51:29 AM 27.8333 -82.7000 111° Southeast 168 193 1,300 -500 Descending Tampa TRACON
Sun 11:52:29 AM 27.8667 -82.6833 24° Northeast 140 161 500 -800 Descending Tampa TRACON
Sun 11:54:00 AM 27.9000 -82.6833 310° West  Level FlightAware Approximate

Login

Don't have an account? Register now (free) for customized features, flight alerts, and more!